Bovril, Argentina
Current Conditions -  °F | °C
As of 11:00 AM on Sunday 21 Dec 2014 (Local Time) from SUSO Reporting Station
Drizzle Drizzle  
Wind Chill: 20°   Ceiling: 1000
Heat Index: 20°   Visibility: 5mi
Dew Point: 19°   Wind: 3mph
Humidity: 94%   Direction: 240°WSW
Pressure: 29.65"   Gusts: NA
Location:  31.35°S, 59.43°W
Report Text: SUSO 211400Z 24003KT 8000 -DZ BKN010 OVC060 20/19 Q1004
Loading
Personal Weather Stations






























Interactive Weather Map New forecast layout! Learn more

10-Day Weather Forecast

Advertisements
Track Severe Weather on mobile